Alleghenyville, Pennsylvania
Current Conditions -  °F | °C
As of 5:54 AM on Wednesday 22 Oct 2014 (Local Time) from KRDG Reporting Station
Overcast Overcast  
Wind Chill: 13°   Ceiling: 1900
Heat Index: 13°   Visibility: 10mi
Dew Point:   Wind: 6mph
Humidity: 77%   Direction: 360°N
Pressure: 29.89"   Gusts: NA
Location:  40.2411°N, 75.9752°W
Report Text: KRDG 220954Z 36005KT 10SM OVC019 13/09 A2989 RMK AO2 SLP127 T01280089
Loading
Personal Weather Stations






























Interactive Weather Map
Tropical Storm Tracking
New forecast layout! Learn more

10-Day Weather Forecast

Advertisements
Track Severe Weather on mobile